createdAt,value
2022-11-30T00:00:00.146Z,83
2022-11-30T00:04:00.135Z,83
2022-11-30T00:08:00.205Z,83
2022-11-30T00:12:00.119Z,83
2022-11-30T00:16:00.150Z,83
2022-11-30T00:20:00.178Z,83
2022-11-30T00:24:00.145Z,83
2022-11-30T00:28:00.141Z,83
2022-11-30T00:32:00.151Z,83
2022-11-30T00:36:00.134Z,83
2022-11-30T00:40:00.159Z,83
2022-11-30T00:44:00.152Z,83
2022-11-30T00:48:00.123Z,82
2022-11-30T00:52:00.170Z,82
2022-11-30T00:56:00.129Z,82
2022-11-30T01:00:00.167Z,82
2022-11-30T01:04:00.146Z,82
2022-11-30T01:08:00.264Z,82
2022-11-30T01:12:00.145Z,82
2022-11-30T01:16:00.205Z,82
2022-11-30T01:20:00.158Z,82
2022-11-30T01:24:00.132Z,82
2022-11-30T01:28:00.134Z,82
2022-11-30T01:32:00.137Z,82
2022-11-30T01:36:00.151Z,82
2022-11-30T01:40:00.160Z,82
2022-11-30T01:44:00.141Z,82
2022-11-30T01:48:00.120Z,82
2022-11-30T01:52:00.133Z,82
2022-11-30T01:56:00.160Z,82
2022-11-30T02:00:00.162Z,83
2022-11-30T02:04:00.143Z,83
2022-11-30T02:08:00.267Z,83
2022-11-30T02:12:00.136Z,83
2022-11-30T02:16:00.298Z,83
2022-11-30T02:20:00.140Z,83
2022-11-30T02:24:00.142Z,83
2022-11-30T02:28:00.124Z,83
2022-11-30T02:32:00.146Z,83
2022-11-30T02:36:00.126Z,83
2022-11-30T02:40:00.162Z,83
2022-11-30T02:44:00.138Z,83
2022-11-30T02:48:00.147Z,83
2022-11-30T02:52:00.125Z,83
2022-11-30T02:56:00.124Z,83
2022-11-30T03:00:00.190Z,82
2022-11-30T03:04:00.127Z,82
2022-11-30T03:08:00.222Z,83
2022-11-30T03:12:00.143Z,83
2022-11-30T03:16:00.204Z,83
2022-11-30T03:20:00.190Z,83
2022-11-30T03:24:00.125Z,83
2022-11-30T03:28:00.117Z,83
2022-11-30T03:32:00.116Z,83
2022-11-30T03:36:00.128Z,83
2022-11-30T03:40:00.142Z,83
2022-11-30T03:44:00.142Z,82
2022-11-30T03:48:00.111Z,82
2022-11-30T03:52:00.136Z,83
2022-11-30T03:56:00.162Z,83
2022-11-30T04:00:00.138Z,82
2022-11-30T04:04:00.175Z,82
2022-11-30T04:08:00.183Z,82
2022-11-30T04:12:00.148Z,82
2022-11-30T04:16:00.243Z,82
2022-11-30T04:20:00.152Z,82
2022-11-30T04:24:00.116Z,82
2022-11-30T04:28:00.157Z,82
2022-11-30T04:32:00.142Z,82
2022-11-30T04:36:00.147Z,82
2022-11-30T04:40:00.176Z,82
2022-11-30T04:44:00.139Z,82
2022-11-30T04:48:00.141Z,82
2022-11-30T04:52:00.153Z,82
2022-11-30T04:56:00.138Z,82
2022-11-30T05:00:00.202Z,82
2022-11-30T05:04:00.312Z,82
2022-11-30T05:08:00.342Z,82
2022-11-30T05:12:00.210Z,83
2022-11-30T05:16:00.280Z,83
2022-11-30T05:20:00.191Z,82
2022-11-30T05:24:00.148Z,82
2022-11-30T05:28:00.168Z,83
2022-11-30T05:32:00.153Z,83
2022-11-30T05:36:02.432Z,83
2022-11-30T05:40:00.191Z,83
2022-11-30T05:44:00.132Z,83
2022-11-30T05:48:00.162Z,83
2022-11-30T05:52:00.152Z,83
2022-11-30T05:56:00.139Z,83
2022-11-30T06:00:00.147Z,82
2022-11-30T06:04:04.675Z,82
2022-11-30T06:08:00.293Z,82
2022-11-30T06:12:00.137Z,82
2022-11-30T06:16:00.278Z,82
2022-11-30T06:20:00.176Z,82
2022-11-30T06:24:00.163Z,82
2022-11-30T06:28:00.147Z,82
2022-11-30T06:32:00.211Z,82
2022-11-30T06:36:00.140Z,82
2022-11-30T06:40:07.802Z,82
2022-11-30T06:44:00.168Z,82
2022-11-30T06:48:00.158Z,82
2022-11-30T06:52:00.139Z,82
2022-11-30T06:56:01.507Z,82
2022-11-30T07:00:00.206Z,82
2022-11-30T07:04:00.234Z,82
2022-11-30T07:08:00.227Z,82
2022-11-30T07:12:00.163Z,82
2022-11-30T07:16:00.153Z,82
2022-11-30T07:20:00.149Z,82
2022-11-30T07:24:00.148Z,82
2022-11-30T07:28:00.163Z,82
2022-11-30T07:32:00.191Z,82
2022-11-30T07:36:00.159Z,82
2022-11-30T07:40:00.194Z,82
2022-11-30T07:44:00.137Z,82
2022-11-30T07:48:00.138Z,82
2022-11-30T07:52:00.146Z,82
2022-11-30T07:56:00.131Z,82
2022-11-30T08:00:00.223Z,82
2022-11-30T08:04:00.158Z,82
2022-11-30T08:08:00.285Z,82
2022-11-30T08:12:00.132Z,82
2022-11-30T08:16:00.229Z,82
2022-11-30T08:20:00.182Z,81
2022-11-30T08:24:00.260Z,81
2022-11-30T08:28:00.124Z,81
2022-11-30T08:32:00.163Z,81
2022-11-30T08:36:00.129Z,81
2022-11-30T08:40:00.187Z,81
2022-11-30T08:44:00.133Z,81
2022-11-30T08:48:00.133Z,81
2022-11-30T08:52:17.631Z,80
2022-11-30T08:56:00.146Z,80
2022-11-30T09:00:00.235Z,80
2022-11-30T09:04:00.112Z,80
2022-11-30T09:08:00.196Z,79
2022-11-30T09:12:00.162Z,79
2022-11-30T09:16:00.239Z,79
2022-11-30T09:20:00.182Z,79
2022-11-30T09:24:00.132Z,79
2022-11-30T09:28:00.139Z,78
2022-11-30T09:32:00.143Z,78
2022-11-30T09:36:00.119Z,78
2022-11-30T09:40:00.157Z,78
2022-11-30T09:44:00.137Z,77
2022-11-30T09:48:00.133Z,77
2022-11-30T09:52:00.134Z,77
2022-11-30T09:56:00.151Z,75
2022-11-30T10:00:00.160Z,76
2022-11-30T10:04:00.129Z,75
2022-11-30T10:08:00.216Z,75
2022-11-30T10:12:00.104Z,75
2022-11-30T10:16:00.213Z,74
2022-11-30T10:20:00.123Z,74
2022-11-30T10:24:00.110Z,73
2022-11-30T10:28:12.585Z,73
2022-11-30T10:32:00.136Z,73
2022-11-30T10:36:00.142Z,73
2022-11-30T10:40:00.151Z,72
2022-11-30T10:44:00.124Z,72
2022-11-30T10:48:00.137Z,71
2022-11-30T10:52:00.102Z,71
2022-11-30T10:56:00.134Z,70
2022-11-30T11:00:00.130Z,70
2022-11-30T11:04:00.210Z,70
2022-11-30T11:08:06.526Z,69
2022-11-30T11:12:00.129Z,69
2022-11-30T11:16:00.252Z,69
2022-11-30T11:20:00.142Z,68
2022-11-30T11:24:00.116Z,68
2022-11-30T11:28:00.121Z,65
2022-11-30T11:32:00.107Z,63
2022-11-30T11:36:00.161Z,63
2022-11-30T11:40:00.162Z,64
2022-11-30T11:44:00.108Z,63
2022-11-30T11:48:00.132Z,62
2022-11-30T11:52:00.137Z,62
2022-11-30T11:56:00.139Z,61
2022-11-30T12:00:00.133Z,60
2022-11-30T12:04:00.180Z,61
2022-11-30T12:08:00.161Z,61
2022-11-30T12:12:00.124Z,60
2022-11-30T12:16:00.439Z,61
2022-11-30T12:20:00.146Z,61
2022-11-30T12:24:00.105Z,62
2022-11-30T12:28:00.127Z,62
2022-11-30T12:32:00.122Z,62
2022-11-30T12:36:00.106Z,64
2022-11-30T12:40:00.138Z,65
2022-11-30T12:44:00.119Z,65
2022-11-30T12:48:00.144Z,66
2022-11-30T12:52:00.133Z,67
2022-11-30T12:56:00.106Z,67
2022-11-30T13:00:00.146Z,68
2022-11-30T13:04:00.127Z,68
2022-11-30T13:08:00.273Z,68
2022-11-30T13:12:00.120Z,69
2022-11-30T13:16:00.192Z,69
2022-11-30T13:20:00.139Z,70
2022-11-30T13:24:00.118Z,70
2022-11-30T13:28:00.133Z,70
2022-11-30T13:32:00.138Z,71
2022-11-30T13:36:00.132Z,71
2022-11-30T13:40:00.164Z,71
2022-11-30T13:44:00.131Z,72
2022-11-30T13:48:00.145Z,73
2022-11-30T13:52:22.807Z,74
2022-11-30T13:56:00.113Z,74
2022-11-30T14:00:00.141Z,74
2022-11-30T14:04:00.142Z,75
2022-11-30T14:08:00.237Z,75
2022-11-30T14:12:00.119Z,75
2022-11-30T14:16:00.280Z,76
2022-11-30T14:20:00.144Z,76
2022-11-30T14:24:00.140Z,76
2022-11-30T14:28:00.136Z,76
2022-11-30T14:32:00.113Z,77
2022-11-30T14:36:00.153Z,77
2022-11-30T14:40:00.141Z,77
2022-11-30T14:44:00.128Z,78
2022-11-30T14:48:00.118Z,78
2022-11-30T14:52:00.121Z,78
2022-11-30T14:56:00.112Z,78
2022-11-30T15:00:00.175Z,78
2022-11-30T15:04:00.122Z,78
2022-11-30T15:08:00.243Z,78
2022-11-30T15:12:00.124Z,79
2022-11-30T15:16:00.198Z,79
2022-11-30T15:20:00.158Z,79
2022-11-30T15:24:00.224Z,79
2022-11-30T15:28:00.128Z,79
2022-11-30T15:32:00.293Z,79
2022-11-30T15:36:27.810Z,79
2022-11-30T15:40:00.267Z,79
2022-11-30T15:44:00.133Z,79
2022-11-30T15:48:00.111Z,79
2022-11-30T15:52:00.118Z,79
2022-11-30T15:56:00.120Z,79
2022-11-30T16:00:00.137Z,80
2022-11-30T16:04:00.109Z,80
2022-11-30T16:08:00.212Z,80
2022-11-30T16:12:00.148Z,80
2022-11-30T16:16:00.187Z,80
2022-11-30T16:20:00.132Z,80
2022-11-30T16:24:00.133Z,80
2022-11-30T16:28:00.129Z,80
2022-11-30T16:32:00.203Z,81
2022-11-30T16:36:00.108Z,81
2022-11-30T16:40:00.165Z,81
2022-11-30T16:44:00.117Z,81
2022-11-30T16:48:00.145Z,81
2022-11-30T16:52:00.132Z,81
2022-11-30T16:56:00.179Z,81
2022-11-30T17:00:00.137Z,81
2022-11-30T17:04:00.137Z,81
2022-11-30T17:08:00.260Z,81
2022-11-30T17:12:00.126Z,81
2022-11-30T17:16:00.163Z,81
2022-11-30T17:20:00.145Z,81
2022-11-30T17:24:00.129Z,81
2022-11-30T17:28:00.167Z,81
2022-11-30T17:32:00.113Z,81
2022-11-30T17:36:00.147Z,81
2022-11-30T17:40:00.201Z,81
2022-11-30T17:44:00.122Z,81
2022-11-30T17:48:00.108Z,81
2022-11-30T17:52:00.116Z,81
2022-11-30T17:56:00.206Z,81
2022-11-30T18:00:00.138Z,81
2022-11-30T18:04:00.108Z,82
2022-11-30T18:08:00.229Z,82
2022-11-30T18:12:00.111Z,82
2022-11-30T18:16:00.158Z,82
2022-11-30T18:20:00.162Z,82
2022-11-30T18:24:00.126Z,82
2022-11-30T18:28:00.112Z,82
2022-11-30T18:32:00.143Z,82
2022-11-30T18:36:00.154Z,82
2022-11-30T18:40:00.124Z,82
2022-11-30T18:44:00.146Z,82
2022-11-30T18:48:00.144Z,82
2022-11-30T18:52:00.153Z,82
2022-11-30T18:56:00.144Z,82
2022-11-30T19:00:00.165Z,82
2022-11-30T19:04:00.155Z,82
2022-11-30T19:08:00.285Z,82
2022-11-30T19:12:00.138Z,82
2022-11-30T19:16:00.211Z,82
2022-11-30T19:20:00.147Z,82
2022-11-30T19:24:00.165Z,82
2022-11-30T19:28:00.160Z,82
2022-11-30T19:32:00.123Z,82
2022-11-30T19:36:00.131Z,82
2022-11-30T19:40:00.152Z,82
2022-11-30T19:44:03.547Z,82
2022-11-30T19:48:00.136Z,82
2022-11-30T19:52:00.226Z,82
2022-11-30T19:56:00.171Z,82
2022-11-30T20:00:00.160Z,82
2022-11-30T20:04:00.139Z,82
2022-11-30T20:08:00.300Z,82
2022-11-30T20:12:00.127Z,83
2022-11-30T20:16:00.248Z,83
2022-11-30T20:20:00.158Z,83
2022-11-30T20:24:00.168Z,83
2022-11-30T20:28:00.118Z,83
2022-11-30T20:32:00.139Z,83
2022-11-30T20:36:00.153Z,83
2022-11-30T20:40:00.131Z,83
2022-11-30T20:44:00.101Z,83
2022-11-30T20:48:00.121Z,83
2022-11-30T20:52:00.123Z,83
2022-11-30T20:56:00.142Z,83
2022-11-30T21:00:00.140Z,83
2022-11-30T21:04:00.126Z,83
2022-11-30T21:08:00.226Z,83
2022-11-30T21:12:00.118Z,83
2022-11-30T21:16:00.276Z,83
2022-11-30T21:20:00.112Z,83
2022-11-30T21:24:00.125Z,83
2022-11-30T21:28:00.127Z,83
2022-11-30T21:32:00.130Z,83
2022-11-30T21:36:00.124Z,83
2022-11-30T21:40:00.144Z,83
2022-11-30T21:44:00.162Z,83
2022-11-30T21:48:00.138Z,83
2022-11-30T21:52:00.116Z,83
2022-11-30T21:56:00.196Z,83
2022-11-30T22:00:00.153Z,83
2022-11-30T22:04:00.266Z,83
2022-11-30T22:08:00.202Z,84
2022-11-30T22:12:00.136Z,84
2022-11-30T22:16:00.176Z,84
2022-11-30T22:20:00.140Z,84
2022-11-30T22:24:00.123Z,84
2022-11-30T22:28:00.120Z,84
2022-11-30T22:32:00.115Z,84
2022-11-30T22:36:00.113Z,84
2022-11-30T22:40:00.139Z,84
2022-11-30T22:44:00.122Z,84
2022-11-30T22:48:00.132Z,84
2022-11-30T22:52:00.133Z,84
2022-11-30T22:56:00.259Z,84
2022-11-30T23:00:00.150Z,84
2022-11-30T23:04:00.208Z,84
2022-11-30T23:08:00.186Z,84
2022-11-30T23:12:00.126Z,84
2022-11-30T23:16:00.248Z,84
2022-11-30T23:20:00.129Z,84
2022-11-30T23:24:00.451Z,84
2022-11-30T23:28:00.121Z,84
2022-11-30T23:32:00.267Z,84
2022-11-30T23:36:00.114Z,84
2022-11-30T23:40:00.137Z,84
2022-11-30T23:44:00.118Z,84
2022-11-30T23:48:00.140Z,84
2022-11-30T23:52:00.242Z,84
2022-11-30T23:56:00.152Z,84
